Regina International Airport
CYQR : now visible

Airfield :











YOU CAN JOIN US ON...

 
LOGIN :

Register | Disclaimer

   EN    FR    IT 

 









Legend :    VFR   Marginal VFR   IFR   Intensive IFR   Very Intensive IFR
Visi :
Ceiling :
>= 8 km
>= 3000ft
5 to 8 km
1000 to 3000 ft
1500m to 5 km
500 to 1000 ft
800 to 1500m
200 to 500 ft
< 800m
< 200 ft
Symbols :   Thunderstorms  Fog  Heavy snow  Heavy precipitations  Wind > 20 kt






- Airport Elevation : 1894 ft
- IATA code : YQR


CYQR - Regina International

CURRENT METAR :
  • 261200Z 19008KT 15SM FEW100 06/04 A2943 RMK AC1 AC TR SLP978 DENSITY ALT 1900FT

EXPIRED METARs :
  • 261100Z 16009KT 15SM OVC100 09/07 A2944 RMK AC8 SLP977 DENSITY ALT 2200FT
  • 261000Z 18007KT 15SM OVC110 09/07 A2946 RMK AC8 SLP982 DENSITY ALT 2200FT
  • 260943Z 19006KT 15SM OVC090 10/08 A2946 RMK AC8 SLP983 DENSITY ALT 2300FT

TAF TAF CYQR
Valid from the 26 at 12:00 until the 27 at 12:00 UTC


261142Z 2612/2712 19008KT P6SM FEW120
FM261500 23010KT P6SM SCT080
TEMPO 2615/2621 P6SM VCSH BKN080
BECMG 2615/2616 26015G25KT
FM262100 28025G35KT P6SM BKN040 OVC080
TEMPO 2621/2624 P6SM -SHRA BKN020 OVC040
FM270000 30018G28KT P6SM -RA SCT015 OVC030
TEMPO 2700/2706 5SM -SHRA BR FEW008 OVC015
FM270600 31015G25KT P6SM SCT020 BKN060 OVC120
TEMPO 2706/2712 P6SM -SHRA BKN020 OVC060 RMK NXT FCST BY 261800Z
CZWG FIR / North America



MET'MAP, your aeronautical weather chart ! - Copyright ORBIFLY December 2007 - Disclaimer

ORBIFLY MET'MAP TEAM :

Programming & Development : Alexandra Zaïnal
Concept & original design : Baudouin d'Aumeries
Assistance for programming : Marc-Olivier Méhu
Technical & hardware support : Manuel Goepfert

Contact : metmap@orbifly.com




SOURCES & CREDITS :

   NOAA       Earth
Advisory